Refine Search
Year Filed

2007 ×

Court

Delaware ×

Click on desired case number or refine your search to continue

Case TitleCourtCase NoChpDate FiledClosedDisposition
Nutritional Sourcing CorporationDelaware1:07-bk-110381108/03/200712/30/2014
HomeBanc Mortgage CorporationDelaware1:07-bk-11079708/09/2007
American Home Mortgage Holdings, Inc.Delaware1:07-bk-110471108/06/200712/11/2018Discharge Not Applicable
Alliance Bancorp, Inc.Delaware1:07-bk-10943707/13/2007
TWTR, Inc., et al.Delaware1:07-bk-107871106/11/200709/19/2016Discharge Not Applicable
New Century TRS Holdings, Inc. and Michael J MissalDelaware1:07-bk-104161104/02/200708/26/2016
HomeBanc Corp.Delaware1:07-bk-11080708/09/2007
Fedders North America, Inc., et al.,Delaware1:07-bk-111761108/22/200712/26/2013Discharge Not Applicable
Aegis Mortgage Corporation, et al.Delaware1:07-bk-111191108/13/200711/02/2012Discharge Not Applicable
TSG Group, Inc.Delaware1:07-bk-11337709/14/2007
Chesapeake Shores Development, Inc.Delaware1:07-bk-113541109/19/200703/04/2009Discharge Not Applicable 12/02/2008
Homeward Bound Services of North America in DelawaDelaware1:07-bk-11731711/16/2007
Mortgage Lenders Network USA, Inc.Delaware1:07-bk-101461102/05/200705/21/2012Discharge Not Applicable
SN Liquidation, Inc. et., al.,Delaware1:07-bk-116661111/08/200706/15/2012Discharge Not Applicable
SH Liquidation Inc..Delaware1:07-bk-11889712/18/200703/04/2019Discharge Not Applicable
SPNH Liquidation Inc.Delaware1:07-bk-11890712/18/200706/19/2017Discharge Not Applicable
SHG Liquidation Inc.Delaware1:07-bk-11893712/18/200706/19/2017Discharge Not Applicable
AP Liquidation Inc.Delaware1:07-bk-11891712/18/200703/04/2019Discharge Not Applicable
TWA Liquidation Inc.Delaware1:07-bk-11892712/18/200706/19/2017Discharge Not Applicable
Avado Brands, Inc.Delaware1:07-bk-11276709/05/200708/13/2018Discharge Not Applicable
Aegis Mortgage Loan Servicing CorporationDelaware1:07-bk-111281108/13/2007
Yazam.com (Japan), Inc.Delaware1:07-bk-11247708/31/2007
Yazam.Capital Corp.Delaware1:07-bk-11248708/31/2007
Aegis Funding CorporationDelaware1:07-bk-111221108/13/200711/02/2012Discharge Not Applicable
Eubank Coil CompanyDelaware1:07-bk-111801108/22/200703/22/2011Discharge Not Applicable
Liquidating Trust of ResMAE Mortgage CorporationDelaware1:07-bk-101771102/12/200712/23/2010Discharge Not Applicable
Hollinger Inc.Delaware1:07-bk-110291508/01/2007
Hancock Fabrics, Inc., et al.,Delaware1:07-bk-103531103/21/200711/15/2011Discharge Not Applicable
Northwest Suburban Community Hospital, Inc.Delaware1:07-bk-11018707/31/200709/17/2013Discharge Not Applicable
Alliance BancorpDelaware1:07-bk-10942707/13/2007
Delta Funding CorporationDelaware1:07-bk-118811112/17/2007
Alliance Mortgage Investments, Inc.Delaware1:07-bk-10941707/13/2007
SCO Operations, Inc.Delaware1:07-bk-11338709/14/2007
Quaker Fabric CorporationDelaware1:07-bk-111461108/16/200701/25/2018Discharge Not Applicable
Exaeris Inc.Delaware1:07-bk-108871107/02/200703/20/2014Discharge Not Applicable
MAXjet Airways, Inc.Delaware1:07-bk-119121112/24/200704/15/2014Discharge Not Applicable
4322525 Canada Inc. formerly 504468 N.B. Inc.Delaware1:07-bk-110301508/01/2007
Hops Grill and Bar, Inc.Delaware1:07-bk-11282709/05/200708/06/2010Discharge Not Applicable
Unit Parts CompanyDelaware1:07-bk-115051110/08/200701/24/2008Discharge Not Applicable
Pope & Talbot, Inc. and PricewaterhouseCoopers Inc., as duly recognized foDelaware1:07-bk-11738711/19/2007
New Century Financial CorporationDelaware1:07-bk-104171104/02/200708/26/2016Discharge Not Applicable
Earthshell CorporationDelaware1:07-bk-100861101/19/200705/12/2011Discharge Not Applicable
Earth Biofuels, Inc.Delaware1:07-bk-10928707/11/200712/21/2007Dismissed for Other Reason 12/10/2007
Amp'd Mobile, Inc.Delaware1:07-bk-107391106/01/200709/09/2011Discharge Not Applicable 08/24/2011
Hancock Fabrics of MI, Inc.Delaware1:07-bk-103541103/21/200708/18/2010Discharge Not Applicable
Aspen Executive Air, LLCDelaware1:07-bk-113411109/14/200703/28/2011Discharge Not Applicable
121 Sportsnet, Inc.Delaware1:07-bk-106191105/07/200711/14/2007Dismissed for Other Reason 10/23/2007
New Century Credit CorporationDelaware1:07-bk-104221104/02/200708/26/2016Discharge Not Applicable
HMB Mortgage Partners, LLCDelaware1:07-bk-11084708/09/2007
American Home Mortgage Corp.Delaware1:07-bk-110511108/06/2007